Time,TemperatureF,DewpointF,PressureIn,WindDirection,WindDirectionDegrees,WindSpeedMPH,WindSpeedGustMPH,Humidity,HourlyPrecipIn,Conditions,Clouds,dailyrainin,SoftwareType,DateUTC
2013-06-12 00:11:00,77.3,73.0,29.90,SE,124,3.0,5.0,85,0.00,,,0.00,weatherlink.com 1.10,2013-06-12 06:11:00,
2013-06-12 00:26:00,76.9,73.0,29.90,ESE,115,3.0,3.0,86,0.00,,,0.00,weatherlink.com 1.10,2013-06-12 06:26:00,
2013-06-12 00:41:00,76.7,73.0,29.90,SE,131,1.0,4.0,87,0.00,,,0.00,weatherlink.com 1.10,2013-06-12 06:41:00,
2013-06-12 00:56:00,76.6,73.0,29.90,SSE,151,1.0,5.0,88,0.00,,,0.00,weatherlink.com 1.10,2013-06-12 06:56:00,
2013-06-12 01:11:00,76.4,73.0,29.90,SE,127,1.0,3.0,88,0.00,,,0.00,weatherlink.com 1.10,2013-06-12 07:11:00,
2013-06-12 01:27:00,76.4,73.0,29.90,ESE,118,4.0,6.0,89,0.00,,,0.00,weatherlink.com 1.10,2013-06-12 07:27:00,
2013-06-12 01:42:00,76.5,73.0,29.90,SE,127,0.0,3.0,89,0.00,,,0.00,weatherlink.com 1.10,2013-06-12 07:42:00,
2013-06-12 01:57:00,76.4,73.0,29.90,SE,131,2.0,5.0,89,0.00,,,0.00,weatherlink.com 1.10,2013-06-12 07:57:00,
2013-06-12 02:12:00,76.4,73.0,29.91,SSE,167,1.0,4.0,90,0.00,,,0.00,weatherlink.com 1.10,2013-06-12 08:12:00,
2013-06-12 02:27:00,76.4,73.0,29.90,SE,139,1.0,5.0,90,0.00,,,0.00,weatherlink.com 1.10,2013-06-12 08:27:00,
2013-06-12 02:42:00,76.4,74.0,29.91,SE,135,1.0,6.0,91,0.00,,,0.00,weatherlink.com 1.10,2013-06-12 08:42:00,
2013-06-12 02:57:00,76.4,74.0,29.91,SSE,165,1.0,3.0,91,0.00,,,0.00,weatherlink.com 1.10,2013-06-12 08:57:00,
2013-06-12 03:12:00,76.6,74.0,29.91,SE,142,2.0,8.0,92,0.00,,,0.00,weatherlink.com 1.10,2013-06-12 09:12:00,
2013-06-12 03:27:00,76.6,74.0,29.91,ESE,122,1.0,2.0,92,0.00,,,0.00,weatherlink.com 1.10,2013-06-12 09:27:00,
2013-06-12 03:42:00,76.5,74.0,29.92,SSW,194,3.0,4.0,92,0.00,,,0.00,weatherlink.com 1.10,2013-06-12 09:42:00,
2013-06-12 03:57:00,76.3,74.0,29.92,SW,217,1.0,3.0,92,0.00,,,0.00,weatherlink.com 1.10,2013-06-12 09:57:00,
2013-06-12 04:12:00,76.1,74.0,29.93,South,177,0.0,3.0,93,0.00,,,0.00,weatherlink.com 1.10,2013-06-12 10:12:00,
2013-06-12 04:27:00,76.0,74.0,29.93,SE,146,0.0,2.0,93,0.00,,,0.00,weatherlink.com 1.10,2013-06-12 10:27:00,
2013-06-12 04:42:00,75.9,74.0,29.93,SE,144,0.0,2.0,93,0.00,,,0.00,weatherlink.com 1.10,2013-06-12 10:42:00,
2013-06-12 04:57:00,75.6,74.0,29.94,SE,136,0.0,4.0,93,0.00,,,0.00,weatherlink.com 1.10,2013-06-12 10:57:00,
2013-06-12 05:12:00,75.4,73.0,29.94,SE,133,0.0,1.0,93,0.00,,,0.00,weatherlink.com 1.10,2013-06-12 11:12:00,
2013-06-12 05:27:00,75.1,73.0,29.95,SW,236,0.0,2.0,93,0.00,,,0.00,weatherlink.com 1.10,2013-06-12 11:27:00,
2013-06-12 05:42:00,75.0,73.0,29.95,SE,146,0.0,1.0,94,0.00,,,0.00,weatherlink.com 1.10,2013-06-12 11:42:00,
2013-06-12 05:57:00,75.3,74.0,29.95,ESE,109,0.0,3.0,94,0.00,,,0.00,weatherlink.com 1.10,2013-06-12 11:57:00,
2013-06-12 06:12:00,76.3,74.0,29.96,East,95,0.0,1.0,93,0.00,,,0.00,weatherlink.com 1.10,2013-06-12 12:12:00,
2013-06-12 06:27:00,77.3,75.0,29.96,ESE,109,2.0,3.0,91,0.00,,,0.00,weatherlink.com 1.10,2013-06-12 12:27:00,
2013-06-12 06:42:00,77.3,74.0,29.97,SW,219,0.0,4.0,90,0.00,,,0.00,weatherlink.com 1.10,2013-06-12 12:42:00,
2013-06-12 06:57:00,77.1,74.0,29.97,SW,219,0.0,5.0,90,0.00,,,0.00,weatherlink.com 1.10,2013-06-12 12:57:00,
2013-06-12 07:12:00,77.4,74.0,29.98,East,98,4.0,10.0,90,0.00,,,0.00,weatherlink.com 1.10,2013-06-12 13:12:00,
2013-06-12 07:27:00,78.2,74.0,29.98,SE,141,0.0,5.0,88,0.00,,,0.00,weatherlink.com 1.10,2013-06-12 13:27:00,
2013-06-12 07:42:00,79.4,74.0,29.99,SE,142,1.0,12.0,84,0.00,,,0.00,weatherlink.com 1.10,2013-06-12 13:42:00,
2013-06-12 07:57:00,80.4,75.0,30.00,ESE,105,3.0,6.0,82,0.00,,,0.00,weatherlink.com 1.10,2013-06-12 13:57:00,
2013-06-12 08:12:00,80.1,74.0,30.00,SW,217,9.0,9.0,81,0.00,,,0.00,weatherlink.com 1.10,2013-06-12 14:12:00,
2013-06-12 08:27:00,80.7,74.0,30.00,SE,124,8.0,9.0,80,0.00,,,0.00,weatherlink.com 1.10,2013-06-12 14:27:00,
2013-06-12 08:42:00,83.0,74.0,30.00,SW,215,4.0,11.0,73,0.00,,,0.00,weatherlink.com 1.10,2013-06-12 14:42:00,
2013-06-12 08:57:00,83.2,73.0,30.00,WSW,239,7.0,9.0,72,0.00,,,0.00,weatherlink.com 1.10,2013-06-12 14:57:00,
2013-06-12 09:13:00,83.6,74.0,29.99,SW,225,6.0,10.0,72,0.00,,,0.00,weatherlink.com 1.10,2013-06-12 15:13:00,
2013-06-12 09:28:00,82.1,74.0,29.99,WSW,252,3.0,8.0,75,0.00,,,0.00,weatherlink.com 1.10,2013-06-12 15:28:00,
2013-06-12 09:43:00,83.8,74.0,29.99,WSW,257,2.0,6.0,73,0.00,,,0.00,weatherlink.com 1.10,2013-06-12 15:43:00,
2013-06-12 09:58:00,84.6,73.0,29.99,South,183,1.0,8.0,69,0.00,,,0.00,weatherlink.com 1.10,2013-06-12 15:58:00,
2013-06-12 10:13:00,86.4,76.0,29.99,SE,130,2.0,6.0,70,0.00,,,0.00,weatherlink.com 1.10,2013-06-12 16:13:00,
2013-06-12 10:28:00,87.3,73.0,29.98,SSW,195,3.0,7.0,63,0.00,,,0.00,weatherlink.com 1.10,2013-06-12 16:28:00,
2013-06-12 10:43:00,88.5,73.0,29.98,SSW,201,2.0,7.0,61,0.00,,,0.00,weatherlink.com 1.10,2013-06-12 16:43:00,
2013-06-12 10:58:00,88.4,74.0,29.98,WSW,243,1.0,7.0,63,0.00,,,0.00,weatherlink.com 1.10,2013-06-12 16:58:00,
2013-06-12 11:13:00,89.4,74.0,29.98,South,180,3.0,9.0,60,0.00,,,0.00,weatherlink.com 1.10,2013-06-12 17:13:00,
2013-06-12 11:28:00,90.2,74.0,29.98,SSE,151,1.0,10.0,59,0.00,,,0.00,weatherlink.com 1.10,2013-06-12 17:28:00,
2013-06-12 11:43:00,90.1,73.0,29.98,WSW,243,5.0,11.0,57,0.00,,,0.00,weatherlink.com 1.10,2013-06-12 17:43:00,
2013-06-12 11:58:00,90.5,73.0,29.97,WSW,238,4.0,7.0,56,0.00,,,0.00,weatherlink.com 1.10,2013-06-12 17:58:00,
2013-06-12 12:13:00,91.1,74.0,29.97,SSW,195,4.0,8.0,58,0.00,,,0.00,weatherlink.com 1.10,2013-06-12 18:13:00,
2013-06-12 12:28:00,91.4,74.0,29.97,SSW,200,0.0,7.0,57,0.00,,,0.00,weatherlink.com 1.10,2013-06-12 18:28:00,
2013-06-12 12:42:00,91.6,74.0,29.96,SSW,210,7.0,7.0,57,0.00,,,0.00,weatherlink.com 1.10,2013-06-12 18:42:00,
2013-06-12 12:58:00,91.6,74.0,29.96,SSE,158,4.0,8.0,57,0.00,,,0.00,weatherlink.com 1.10,2013-06-12 18:58:00,
2013-06-12 13:12:00,92.0,74.0,29.95,WSW,250,5.0,9.0,56,0.00,,,0.00,weatherlink.com 1.10,2013-06-12 19:12:00,
2013-06-12 13:28:00,92.9,73.0,29.95,SE,143,3.0,7.0,53,0.00,,,0.00,weatherlink.com 1.10,2013-06-12 19:28:00,
2013-06-12 13:43:00,93.5,74.0,29.94,ESE,115,3.0,7.0,53,0.00,,,0.00,weatherlink.com 1.10,2013-06-12 19:43:00,
2013-06-12 13:58:00,93.1,73.0,29.94,SE,138,4.0,9.0,52,0.00,,,0.00,weatherlink.com 1.10,2013-06-12 19:58:00,
2013-06-12 14:13:00,94.3,73.0,29.93,WSW,255,2.0,7.0,50,0.00,,,0.00,weatherlink.com 1.10,2013-06-12 20:13:00,
2013-06-12 14:28:00,93.0,73.0,29.93,East,82,7.0,9.0,53,0.00,,,0.00,weatherlink.com 1.10,2013-06-12 20:28:00,
2013-06-12 14:43:00,92.8,72.0,29.93,ESE,111,7.0,11.0,51,0.00,,,0.00,weatherlink.com 1.10,2013-06-12 20:43:00,
2013-06-12 14:58:00,92.3,72.0,29.92,ENE,77,9.0,12.0,52,0.00,,,0.00,weatherlink.com 1.10,2013-06-12 20:58:00,
2013-06-12 15:13:00,93.1,72.0,29.91,SSE,150,2.0,9.0,50,0.00,,,0.00,weatherlink.com 1.10,2013-06-12 21:13:00,
2013-06-12 15:28:00,93.3,72.0,29.90,ESE,115,7.0,12.0,50,0.00,,,0.00,weatherlink.com 1.10,2013-06-12 21:28:00,
2013-06-12 15:43:00,93.0,71.0,29.90,ENE,68,6.0,8.0,49,0.00,,,0.00,weatherlink.com 1.10,2013-06-12 21:43:00,
2013-06-12 16:13:00,93.6,72.0,29.90,SE,127,3.0,6.0,50,0.00,,,0.00,weatherlink.com 1.10,2013-06-12 22:13:00,
2013-06-12 16:28:00,93.0,71.0,29.89,ESE,112,3.0,10.0,48,0.00,,,0.00,weatherlink.com 1.10,2013-06-12 22:28:00,
2013-06-12 16:43:00,93.2,71.0,29.88,SE,138,4.0,8.0,49,0.00,,,0.00,weatherlink.com 1.10,2013-06-12 22:43:00,
2013-06-12 16:58:00,92.4,71.0,29.88,SE,143,1.0,8.0,49,0.00,,,0.00,weatherlink.com 1.10,2013-06-12 22:58:00,
2013-06-12 17:13:00,92.7,71.0,29.87,ESE,119,1.0,7.0,50,0.00,,,0.00,weatherlink.com 1.10,2013-06-12 23:13:00,
2013-06-12 17:28:00,93.4,71.0,29.87,SSW,200,1.0,4.0,49,0.00,,,0.00,weatherlink.com 1.10,2013-06-12 23:28:00,
2013-06-12 17:43:00,92.8,72.0,29.86,SSW,207,2.0,7.0,50,0.00,,,0.00,weatherlink.com 1.10,2013-06-12 23:43:00,
2013-06-12 17:58:00,92.2,71.0,29.86,ESE,116,1.0,6.0,50,0.00,,,0.00,weatherlink.com 1.10,2013-06-12 23:58:00,
2013-06-12 18:13:00,92.0,71.0,29.86,ESE,117,3.0,4.0,50,0.00,,,0.00,weatherlink.com 1.10,2013-06-13 00:13:00,
2013-06-12 18:28:00,91.4,71.0,29.86,SE,125,1.0,3.0,52,0.00,,,0.00,weatherlink.com 1.10,2013-06-13 00:28:00,
2013-06-12 18:43:00,90.6,72.0,29.86,ESE,120,0.0,4.0,54,0.00,,,0.00,weatherlink.com 1.10,2013-06-13 00:43:00,
2013-06-12 18:58:00,89.3,72.0,29.87,ESE,117,1.0,2.0,56,0.00,,,0.00,weatherlink.com 1.10,2013-06-13 00:58:00,
2013-06-12 19:13:00,87.7,72.0,29.87,East,93,0.0,2.0,59,0.00,,,0.00,weatherlink.com 1.10,2013-06-13 01:13:00,
2013-06-12 19:28:00,86.1,72.0,29.87,ESE,102,0.0,2.0,63,0.00,,,0.00,weatherlink.com 1.10,2013-06-13 01:28:00,
2013-06-12 20:43:00,83.6,72.0,29.89,SE,129,3.0,5.0,67,0.00,,,0.00,weatherlink.com 1.10,2013-06-13 02:43:00,
2013-06-12 20:58:00,83.2,72.0,29.90,ESE,111,2.0,4.0,68,0.00,,,0.00,weatherlink.com 1.10,2013-06-13 02:58:00,
2013-06-12 21:13:00,82.8,71.0,29.90,SE,125,1.0,4.0,68,0.00,,,0.00,weatherlink.com 1.10,2013-06-13 03:13:00,
2013-06-12 21:28:00,82.1,71.0,29.90,ESE,114,1.0,3.0,70,0.00,,,0.00,weatherlink.com 1.10,2013-06-13 03:28:00,
2013-06-12 21:44:00,81.6,71.0,29.91,East,92,1.0,3.0,71,0.00,,,0.00,weatherlink.com 1.10,2013-06-13 03:44:00,
2013-06-12 21:59:00,81.0,72.0,29.91,SE,124,0.0,2.0,73,0.00,,,0.00,weatherlink.com 1.10,2013-06-13 03:59:00,
2013-06-12 22:14:00,81.0,72.0,29.91,ESE,117,3.0,4.0,73,0.00,,,0.00,weatherlink.com 1.10,2013-06-13 04:14:00,
2013-06-12 22:29:00,80.6,72.0,29.91,ESE,115,1.0,3.0,74,0.00,,,0.00,weatherlink.com 1.10,2013-06-13 04:29:00,
2013-06-12 22:44:00,80.2,72.0,29.91,East,101,0.0,4.0,75,0.00,,,0.00,weatherlink.com 1.10,2013-06-13 04:44:00,
2013-06-12 22:59:00,79.9,71.0,29.91,SE,129,1.0,3.0,75,0.00,,,0.00,weatherlink.com 1.10,2013-06-13 04:59:00,
2013-06-12 23:14:00,79.7,72.0,29.91,ESE,119,1.0,3.0,76,0.00,,,0.00,weatherlink.com 1.10,2013-06-13 05:14:00,
2013-06-12 23:29:00,79.4,72.0,29.91,ESE,115,2.0,3.0,77,0.00,,,0.00,weatherlink.com 1.10,2013-06-13 05:29:00,
2013-06-12 23:44:00,79.2,71.0,29.91,SSE,150,0.0,5.0,77,0.00,,,0.00,weatherlink.com 1.10,2013-06-13 05:44:00,
2013-06-12 23:59:00,79.0,72.0,29.91,SE,126,2.0,4.0,78,0.00,,,0.00,weatherlink.com 1.10,2013-06-13 05:59:00,